createdAt,value
2019-03-05T00:01:21.201Z,60.63
2019-03-05T00:03:50.878Z,59.80
2019-03-05T00:06:20.431Z,60.13
2019-03-05T00:08:50.012Z,60.24
2019-03-05T00:11:19.555Z,58.92
2019-03-05T00:13:49.051Z,59.31
2019-03-05T00:16:18.629Z,58.60
2019-03-05T00:18:48.320Z,59.44
2019-03-05T00:21:19.110Z,59.16
2019-03-05T00:23:55.040Z,58.14
2019-03-05T00:26:31.009Z,56.87
2019-03-05T00:29:37.337Z,56.67
2019-03-05T00:32:06.700Z,56.77
2019-03-05T00:35:11.779Z,59.60
2019-03-05T00:37:51.244Z,59.13
2019-03-05T00:40:50.831Z,57.47
2019-03-05T00:43:57.230Z,56.74
2019-03-05T00:46:37.016Z,56.19
2019-03-05T00:49:35.921Z,55.95
2019-03-05T00:53:00.292Z,55.09
2019-03-05T00:56:09.017Z,55.60
2019-03-05T00:58:52.500Z,55.33
2019-03-05T01:01:28.403Z,55.65
2019-03-05T01:04:23.109Z,55.27
2019-03-05T01:06:52.532Z,54.65
2019-03-05T01:09:23.522Z,55.68
2019-03-05T01:11:52.931Z,55.68
2019-03-05T01:14:24.297Z,55.15
2019-03-05T01:16:53.691Z,55.22
2019-03-05T01:19:23.068Z,55.39
2019-03-05T01:21:52.520Z,55.58
2019-03-05T01:24:21.993Z,55.03
2019-03-05T01:26:51.636Z,54.72
2019-03-05T01:29:21.371Z,56.29
2019-03-05T01:32:15.973Z,57.21
2019-03-05T01:35:22.540Z,57.48
2019-03-05T01:37:52.265Z,57.19
2019-03-05T01:40:40.816Z,58.73
2019-03-05T01:43:10.566Z,58.70
2019-03-05T01:45:40.174Z,58.19
2019-03-05T01:48:09.903Z,58.40
2019-03-05T01:50:39.561Z,58.61
2019-03-05T01:53:09.331Z,58.48
2019-03-05T01:55:38.994Z,58.16
2019-03-05T01:58:08.722Z,56.71
2019-03-05T02:00:38.508Z,56.40
2019-03-05T02:03:08.161Z,56.58
2019-03-05T02:05:37.829Z,57.25
2019-03-05T02:08:07.480Z,56.59
2019-03-05T02:10:37.154Z,57.68
2019-03-05T02:13:06.929Z,58.17
2019-03-05T02:15:36.574Z,58.56
2019-03-05T02:18:06.228Z,58.71
2019-03-05T02:20:35.753Z,58.74
2019-03-05T02:23:24.691Z,61.01
2019-03-05T02:26:43.280Z,63.41
2019-03-05T02:29:33.061Z,65.00
2019-03-05T02:32:46.760Z,64.96
2019-03-05T02:35:28.912Z,66.52
2019-03-05T02:38:42.211Z,66.31
2019-03-05T02:41:42.341Z,66.44
2019-03-05T02:45:14.055Z,65.46
2019-03-05T02:48:10.141Z,64.73
2019-03-05T02:51:20.697Z,63.78
2019-03-05T02:54:25.800Z,64.76
2019-03-05T02:57:13.407Z,63.89
2019-03-05T02:59:42.803Z,63.15
2019-03-05T03:02:31.043Z,62.66
2019-03-05T03:05:14.080Z,62.53
2019-03-05T03:07:43.436Z,62.41
2019-03-05T03:10:21.085Z,62.47
2019-03-05T03:12:50.433Z,61.63
2019-03-05T03:15:20.256Z,60.67
2019-03-05T03:17:50.317Z,60.95
2019-03-05T03:20:20.858Z,60.53
2019-03-05T03:22:50.277Z,59.19
2019-03-05T03:25:23.482Z,60.75
2019-03-05T03:27:52.955Z,65.22
2019-03-05T03:30:23.835Z,65.98
2019-03-05T03:32:53.230Z,65.22
2019-03-05T03:35:22.666Z,64.04
2019-03-05T03:37:52.013Z,65.47
2019-03-05T03:40:22.605Z,65.68
2019-03-05T03:42:52.147Z,65.60
2019-03-05T03:45:23.225Z,66.77
2019-03-05T03:47:52.601Z,66.84
2019-03-05T03:50:21.979Z,66.84
2019-03-05T03:52:51.383Z,65.14
2019-03-05T03:55:20.772Z,64.25
2019-03-05T03:57:50.135Z,63.75
2019-03-05T04:00:23.881Z,62.83
2019-03-05T04:02:53.665Z,61.45
2019-03-05T04:05:23.056Z,62.74
2019-03-05T04:07:52.452Z,62.61
2019-03-05T04:10:21.811Z,61.62
2019-03-05T04:12:51.207Z,60.13
2019-03-05T04:15:21.497Z,58.88
2019-03-05T04:17:50.880Z,58.77
2019-03-05T04:20:28.833Z,60.09
2019-03-05T04:22:58.199Z,59.00
2019-03-05T04:25:27.552Z,59.79
2019-03-05T04:27:56.950Z,61.32
2019-03-05T04:30:26.323Z,62.30
2019-03-05T04:32:55.719Z,58.21
2019-03-05T04:35:25.078Z,59.08
2019-03-05T04:37:54.462Z,57.57
2019-03-05T04:40:23.796Z,56.11
2019-03-05T04:42:53.192Z,55.78
2019-03-05T04:46:04.137Z,54.28
2019-03-05T04:48:33.517Z,54.14
2019-03-05T04:51:15.259Z,54.32
2019-03-05T04:53:44.652Z,57.88
2019-03-05T04:56:14.101Z,63.46
2019-03-05T04:58:43.492Z,64.63
2019-03-05T05:01:12.871Z,65.27
2019-03-05T05:03:42.289Z,66.62
2019-03-05T05:06:11.618Z,67.16
2019-03-05T05:08:41.012Z,65.79
2019-03-05T05:11:10.346Z,64.59
2019-03-05T05:13:39.842Z,64.98
2019-03-05T05:16:09.445Z,62.99
2019-03-05T05:18:39.245Z,62.99
2019-03-05T05:21:08.896Z,61.52
2019-03-05T05:23:38.563Z,61.52
2019-03-05T05:26:08.207Z,61.37
2019-03-05T05:28:37.862Z,60.79
2019-03-05T05:31:07.565Z,63.19
2019-03-05T05:33:37.292Z,64.06
2019-03-05T05:36:06.942Z,62.94
2019-03-05T05:38:36.622Z,62.96
2019-03-05T05:41:06.271Z,63.05
2019-03-05T05:43:35.912Z,63.81
2019-03-05T05:46:05.573Z,63.81
2019-03-05T05:48:35.247Z,63.62
2019-03-05T05:51:04.886Z,63.96
2019-03-05T05:53:34.565Z,62.86
2019-03-05T05:56:04.293Z,61.66
2019-03-05T05:58:33.927Z,60.26
2019-03-05T06:01:07.267Z,59.26
2019-03-05T06:03:37.906Z,60.44
2019-03-05T06:06:07.736Z,61.04
2019-03-05T06:08:37.373Z,60.35
2019-03-05T06:11:07.020Z,58.50
2019-03-05T06:13:36.555Z,56.90
2019-03-05T06:16:06.255Z,56.91
2019-03-05T06:18:35.909Z,56.90
2019-03-05T06:21:05.677Z,56.86
2019-03-05T06:23:35.339Z,57.03
2019-03-05T06:26:04.991Z,57.27
2019-03-05T06:28:36.249Z,56.57
2019-03-05T06:31:05.934Z,57.26
2019-03-05T06:33:35.518Z,56.36
2019-03-05T06:36:05.249Z,57.10
2019-03-05T06:38:34.902Z,55.71
2019-03-05T06:41:04.569Z,56.46
2019-03-05T06:43:34.110Z,56.38
2019-03-05T06:46:03.807Z,55.57
2019-03-05T06:48:33.475Z,55.66
2019-03-05T06:51:03.160Z,55.98
2019-03-05T06:53:33.859Z,55.69
2019-03-05T06:56:03.561Z,55.66
2019-03-05T06:58:33.415Z,55.31
2019-03-05T07:01:03.114Z,55.06
2019-03-05T07:03:32.846Z,55.69
2019-03-05T07:06:38.378Z,55.12
2019-03-05T07:09:45.927Z,55.47
2019-03-05T07:13:05.238Z,54.69
2019-03-05T07:16:33.520Z,55.09
2019-03-05T07:19:26.065Z,54.33
2019-03-05T07:22:19.434Z,55.19
2019-03-05T07:24:52.457Z,54.91
2019-03-05T07:27:27.516Z,53.30
2019-03-05T07:29:59.827Z,52.35
2019-03-05T07:32:29.489Z,50.43
2019-03-05T07:34:58.938Z,49.68
2019-03-05T07:37:28.449Z,49.73
2019-03-05T07:39:58.087Z,49.40
2019-03-05T07:42:28.125Z,50.79
2019-03-05T07:44:57.711Z,52.57
2019-03-05T07:47:27.125Z,53.33
2019-03-05T07:49:56.588Z,53.72
2019-03-05T07:52:26.173Z,52.50
2019-03-05T07:54:55.865Z,52.30
2019-03-05T07:57:25.498Z,50.91
2019-03-05T07:59:55.250Z,51.80
2019-03-05T08:02:25.013Z,51.19
2019-03-05T08:04:54.741Z,49.96
2019-03-05T08:07:24.537Z,49.33
2019-03-05T08:09:54.330Z,49.32
2019-03-05T08:13:26.546Z,49.28
2019-03-05T08:16:08.778Z,50.92
2019-03-05T08:18:38.477Z,52.59
2019-03-05T08:21:08.377Z,55.52
2019-03-05T08:23:38.398Z,56.63
2019-03-05T08:26:08.174Z,55.42
2019-03-05T08:28:37.825Z,55.16
2019-03-05T08:31:07.520Z,54.76
2019-03-05T08:33:37.363Z,55.77
2019-03-05T08:36:07.275Z,54.84
2019-03-05T08:38:37.020Z,54.38
2019-03-05T08:41:27.260Z,54.80
2019-03-05T08:43:56.858Z,54.55
2019-03-05T08:46:26.429Z,54.32
2019-03-05T08:48:56.272Z,54.21
2019-03-05T08:51:26.119Z,54.83
2019-03-05T08:53:56.022Z,55.50
2019-03-05T08:56:26.155Z,55.81
2019-03-05T08:58:56.247Z,56.84
2019-03-05T09:01:25.855Z,56.42
2019-03-05T09:03:55.892Z,57.12
2019-03-05T09:06:25.627Z,56.01
2019-03-05T09:08:55.233Z,56.52
2019-03-05T09:11:24.869Z,56.95
2019-03-05T09:13:54.538Z,56.11
2019-03-05T09:16:24.219Z,55.78
2019-03-05T09:18:53.885Z,55.69
2019-03-05T09:21:23.446Z,55.82
2019-03-05T09:23:52.937Z,56.42
2019-03-05T09:26:22.762Z,56.97
2019-03-05T09:28:52.394Z,56.34
2019-03-05T09:31:21.910Z,56.80
2019-03-05T09:33:51.604Z,57.10
2019-03-05T09:36:21.011Z,57.41
2019-03-05T09:38:50.698Z,57.82
2019-03-05T09:41:20.392Z,57.79
2019-03-05T09:43:50.257Z,57.50
2019-03-05T09:46:19.834Z,57.24
2019-03-05T09:48:49.530Z,57.49
2019-03-05T09:51:19.246Z,58.29
2019-03-05T09:53:48.863Z,60.41
2019-03-05T09:56:18.547Z,61.32
2019-03-05T09:58:48.163Z,63.09
2019-03-05T10:01:18.323Z,64.55
2019-03-05T10:03:47.932Z,65.88
2019-03-05T10:06:17.356Z,68.20
2019-03-05T10:08:46.907Z,68.69
2019-03-05T10:11:16.879Z,70.32
2019-03-05T10:13:46.384Z,70.89
2019-03-05T10:16:16.257Z,71.49
2019-03-05T10:18:45.953Z,70.91
2019-03-05T10:21:15.887Z,69.67
2019-03-05T10:23:45.489Z,70.31
2019-03-05T10:26:15.178Z,69.84
2019-03-05T10:28:44.727Z,70.16
2019-03-05T10:31:14.405Z,68.77
2019-03-05T10:33:44.115Z,67.15
2019-03-05T10:36:13.854Z,65.39
2019-03-05T10:38:43.496Z,67.58
2019-03-05T10:41:13.065Z,64.92
2019-03-05T10:43:42.548Z,66.22
2019-03-05T10:46:12.351Z,65.24
2019-03-05T10:48:43.146Z,65.52
2019-03-05T10:51:12.690Z,63.67
2019-03-05T10:53:42.436Z,63.88
2019-03-05T10:56:11.920Z,63.92
2019-03-05T10:58:41.411Z,63.71
2019-03-05T11:01:11.553Z,62.67
2019-03-05T11:03:41.230Z,63.33
2019-03-05T11:06:10.806Z,63.37
2019-03-05T11:08:40.472Z,60.79
2019-03-05T11:11:13.819Z,61.18
2019-03-05T11:13:41.852Z,61.39
2019-03-05T11:16:11.765Z,61.34
2019-03-05T11:18:41.426Z,61.56
2019-03-05T11:21:11.327Z,61.46
2019-03-05T11:23:40.972Z,62.12
2019-03-05T11:26:10.610Z,62.55
2019-03-05T11:28:40.176Z,62.42
2019-03-05T11:31:10.025Z,61.99
2019-03-05T11:33:39.566Z,61.92
2019-03-05T11:36:10.071Z,62.22
2019-03-05T11:38:39.866Z,62.34
2019-03-05T11:41:09.506Z,61.90
2019-03-05T11:43:39.115Z,59.37
2019-03-05T11:46:12.469Z,57.68
2019-03-05T11:48:42.034Z,56.48
2019-03-05T11:51:11.709Z,58.41
2019-03-05T11:53:41.474Z,57.06
2019-03-05T11:56:11.185Z,58.34
2019-03-05T11:58:40.800Z,57.43
2019-03-05T12:01:23.010Z,56.84
2019-03-05T12:03:52.824Z,57.64
2019-03-05T12:06:22.355Z,57.93
2019-03-05T12:08:52.034Z,57.47
2019-03-05T12:11:21.781Z,57.04
2019-03-05T12:13:51.544Z,56.81
2019-03-05T12:16:21.201Z,57.52
2019-03-05T12:18:51.090Z,56.69
2019-03-05T12:21:20.834Z,56.76
2019-03-05T12:23:50.645Z,56.39
2019-03-05T12:26:20.400Z,56.26
2019-03-05T12:28:50.164Z,55.57
2019-03-05T12:31:19.924Z,56.19
2019-03-05T12:33:49.594Z,56.07
2019-03-05T12:36:19.334Z,56.44
2019-03-05T12:38:49.027Z,55.29
2019-03-05T12:41:18.627Z,55.15
2019-03-05T12:43:48.198Z,53.83
2019-03-05T12:46:17.889Z,55.23
2019-03-05T12:48:47.710Z,55.13
2019-03-05T12:51:17.417Z,54.55
2019-03-05T12:53:47.136Z,55.53
2019-03-05T12:56:23.827Z,54.92
2019-03-05T12:58:48.379Z,55.25
2019-03-05T13:01:17.846Z,55.02
2019-03-05T13:03:47.207Z,53.96
2019-03-05T13:06:16.619Z,53.28
2019-03-05T13:08:45.974Z,53.02
2019-03-05T13:11:15.381Z,53.31
2019-03-05T13:13:47.632Z,53.69
2019-03-05T13:16:15.889Z,53.80
2019-03-05T13:18:45.258Z,54.72
2019-03-05T13:21:14.663Z,54.73
2019-03-05T13:23:44.027Z,55.35
2019-03-05T13:26:13.390Z,55.14
2019-03-05T13:28:42.744Z,55.47
2019-03-05T13:31:12.165Z,55.39
2019-03-05T13:33:42.183Z,54.60
2019-03-05T13:36:13.444Z,53.52
2019-03-05T13:38:45.254Z,53.27
2019-03-05T13:41:15.523Z,53.00
2019-03-05T13:43:45.259Z,52.12
2019-03-05T13:46:14.655Z,50.34
2019-03-05T13:49:40.300Z,49.92
2019-03-05T13:52:41.163Z,48.67
2019-03-05T13:55:27.937Z,51.68
2019-03-05T13:58:44.854Z,51.20
2019-03-05T14:01:14.296Z,50.23
2019-03-05T14:03:49.237Z,49.67
2019-03-05T14:07:15.200Z,49.33
2019-03-05T14:09:42.947Z,49.21
2019-03-05T14:12:12.534Z,49.75
2019-03-05T14:14:41.968Z,49.68
2019-03-05T14:17:23.620Z,48.83
2019-03-05T14:19:53.241Z,47.13
2019-03-05T14:22:22.663Z,47.27
2019-03-05T14:25:01.558Z,48.25
2019-03-05T14:27:23.200Z,48.92
2019-03-05T14:29:52.550Z,48.72
2019-03-05T14:32:21.923Z,48.75
2019-03-05T14:35:13.011Z,49.00
2019-03-05T14:37:42.466Z,48.79
2019-03-05T14:40:24.023Z,49.83
2019-03-05T14:42:49.019Z,49.91
2019-03-05T14:45:21.023Z,49.88
2019-03-05T14:47:50.539Z,49.82
2019-03-05T14:50:19.923Z,49.74
2019-03-05T14:52:49.412Z,49.63
2019-03-05T14:55:18.830Z,48.65
2019-03-05T14:57:48.445Z,48.51
2019-03-05T15:00:19.267Z,49.11
2019-03-05T15:02:48.770Z,48.60
2019-03-05T15:05:18.240Z,48.94
2019-03-05T15:07:47.688Z,48.30
2019-03-05T15:10:17.126Z,49.13
2019-03-05T15:12:46.659Z,48.93
2019-03-05T15:15:18.772Z,49.47
2019-03-05T15:17:48.156Z,49.54
2019-03-05T15:20:17.840Z,48.79
2019-03-05T15:22:47.415Z,48.94
2019-03-05T15:25:16.779Z,49.44
2019-03-05T15:27:46.275Z,49.85
2019-03-05T15:30:17.301Z,50.36
2019-03-05T15:32:46.711Z,50.31
2019-03-05T15:35:16.139Z,50.00
2019-03-05T15:37:45.565Z,50.75
2019-03-05T15:40:15.614Z,51.56
2019-03-05T15:42:45.073Z,51.36
2019-03-05T15:45:16.183Z,51.73
2019-03-05T15:47:45.615Z,51.19
2019-03-05T15:50:17.460Z,50.48
2019-03-05T15:52:46.860Z,50.57
2019-03-05T15:55:16.269Z,50.48
2019-03-05T15:57:45.621Z,50.06
2019-03-05T16:00:20.302Z,50.43
2019-03-05T16:02:49.673Z,51.12
2019-03-05T16:05:20.803Z,50.93
2019-03-05T16:07:50.167Z,51.22
2019-03-05T16:10:19.588Z,51.63
2019-03-05T16:12:48.935Z,51.59
2019-03-05T16:15:18.854Z,50.55
2019-03-05T16:17:48.886Z,50.76
2019-03-05T16:20:18.335Z,51.79
2019-03-05T16:22:51.206Z,51.75
2019-03-05T16:25:18.881Z,51.27
2019-03-05T16:27:48.296Z,51.44
2019-03-05T16:30:37.534Z,51.19
2019-03-05T16:33:23.890Z,51.75
2019-03-05T16:36:21.374Z,51.61
2019-03-05T16:39:05.885Z,51.43
2019-03-05T16:42:05.187Z,51.18
2019-03-05T16:44:56.588Z,51.02
2019-03-05T16:47:50.941Z,51.39
2019-03-05T16:50:38.338Z,51.53
2019-03-05T16:53:41.698Z,51.73
2019-03-05T16:56:28.847Z,52.16
2019-03-05T16:59:35.244Z,51.95
2019-03-05T17:02:32.650Z,51.69
2019-03-05T17:05:22.317Z,52.11
2019-03-05T17:08:09.837Z,52.29
2019-03-05T17:11:00.827Z,52.14
2019-03-05T17:13:30.415Z,52.39
2019-03-05T17:15:59.808Z,52.45
2019-03-05T17:18:29.269Z,51.73
2019-03-05T17:20:58.683Z,51.28
2019-03-05T17:23:28.064Z,50.97
2019-03-05T17:25:57.474Z,51.27
2019-03-05T17:28:26.862Z,51.82
2019-03-05T17:30:56.308Z,52.27
2019-03-05T17:33:25.781Z,52.87
2019-03-05T17:35:55.115Z,52.81
2019-03-05T17:38:24.531Z,52.73
2019-03-05T17:40:53.884Z,52.61
2019-03-05T17:43:23.436Z,52.75
2019-03-05T17:45:52.840Z,53.14
2019-03-05T17:48:22.400Z,53.50
2019-03-05T17:50:51.928Z,53.24
2019-03-05T17:53:21.543Z,53.00
2019-03-05T17:55:51.077Z,53.03
2019-03-05T17:58:20.717Z,53.44
2019-03-05T18:00:50.466Z,53.56
2019-03-05T18:03:19.837Z,53.52
2019-03-05T18:05:49.230Z,53.13
2019-03-05T18:08:18.583Z,53.41
2019-03-05T18:10:48.031Z,53.38
2019-03-05T18:13:17.387Z,53.26
2019-03-05T18:15:46.806Z,53.44
2019-03-05T18:18:16.477Z,54.13
2019-03-05T18:20:45.882Z,54.81
2019-03-05T18:23:15.307Z,55.16
2019-03-05T18:25:44.744Z,55.16
2019-03-05T18:28:14.100Z,54.96
2019-03-05T18:30:43.682Z,54.56
2019-03-05T18:33:13.133Z,54.17
2019-03-05T18:35:42.597Z,54.10
2019-03-05T18:38:14.922Z,54.33
2019-03-05T18:40:44.330Z,54.73
2019-03-05T18:43:16.746Z,54.67
2019-03-05T18:45:46.314Z,54.27
2019-03-05T18:48:15.701Z,54.28
2019-03-05T18:50:45.334Z,54.17
2019-03-05T18:53:14.930Z,54.26
2019-03-05T18:55:44.398Z,54.52
2019-03-05T18:58:13.870Z,55.02
2019-03-05T19:00:43.294Z,54.96
2019-03-05T19:03:12.786Z,55.26
2019-03-05T19:05:42.217Z,55.90
2019-03-05T19:08:11.626Z,56.27
2019-03-05T19:10:41.034Z,55.64
2019-03-05T19:13:10.451Z,55.66
2019-03-05T19:15:39.938Z,55.29
2019-03-05T19:18:09.282Z,55.85
2019-03-05T19:20:38.760Z,56.83
2019-03-05T19:23:08.145Z,57.04
2019-03-05T19:25:37.573Z,57.24
2019-03-05T19:28:07.011Z,57.15
2019-03-05T19:30:36.446Z,56.68
2019-03-05T19:33:05.907Z,57.20
2019-03-05T19:35:35.283Z,57.15
2019-03-05T19:38:04.697Z,56.97
2019-03-05T19:40:35.732Z,57.82
2019-03-05T19:43:05.191Z,57.70
2019-03-05T19:45:34.591Z,56.90
2019-03-05T19:48:03.995Z,56.54
2019-03-05T19:50:33.473Z,56.71
2019-03-05T19:53:02.883Z,56.66
2019-03-05T19:55:32.300Z,56.58
2019-03-05T19:58:11.480Z,56.39
2019-03-05T20:00:52.563Z,56.54
2019-03-05T20:03:21.979Z,56.59
2019-03-05T20:05:51.373Z,56.55
2019-03-05T20:08:20.807Z,56.49
2019-03-05T20:10:50.163Z,57.05
2019-03-05T20:13:19.593Z,57.52
2019-03-05T20:15:48.972Z,57.86
2019-03-05T20:18:18.386Z,58.48
2019-03-05T20:20:47.699Z,58.33
2019-03-05T20:23:17.166Z,58.04
2019-03-05T20:25:47.017Z,58.03
2019-03-05T20:28:16.426Z,57.91
2019-03-05T20:30:46.118Z,58.07
2019-03-05T20:33:15.506Z,59.08
2019-03-05T20:35:45.127Z,60.03
2019-03-05T20:38:14.656Z,60.45
2019-03-05T20:40:44.065Z,60.45
2019-03-05T20:43:13.465Z,60.30
2019-03-05T20:45:42.974Z,60.00
2019-03-05T20:48:12.431Z,59.94
2019-03-05T20:50:41.834Z,59.80
2019-03-05T20:53:11.272Z,59.94
2019-03-05T20:55:40.677Z,59.81
2019-03-05T20:58:10.287Z,59.74
2019-03-05T21:00:39.706Z,59.53
2019-03-05T21:03:09.131Z,59.42
2019-03-05T21:05:40.263Z,59.24
2019-03-05T21:08:09.754Z,59.19
2019-03-05T21:10:39.430Z,58.92
2019-03-05T21:13:09.276Z,58.54
2019-03-05T21:15:38.714Z,58.55
2019-03-05T21:18:08.579Z,58.51
2019-03-05T21:20:39.196Z,58.44
2019-03-05T21:23:08.693Z,58.36
2019-03-05T21:25:38.107Z,58.24
2019-03-05T21:28:07.450Z,58.47
2019-03-05T21:30:36.820Z,58.68
2019-03-05T21:33:06.165Z,59.31
2019-03-05T21:35:35.638Z,59.69
2019-03-05T21:38:05.054Z,59.74
2019-03-05T21:40:34.474Z,59.68
2019-03-05T21:43:03.969Z,59.49
2019-03-05T21:45:35.293Z,59.47
2019-03-05T21:48:04.977Z,59.62
2019-03-05T21:50:34.310Z,59.57
2019-03-05T21:53:03.822Z,59.61
2019-03-05T21:55:33.265Z,59.68
2019-03-05T21:58:02.741Z,59.70
2019-03-05T22:00:32.220Z,59.97
2019-03-05T22:03:01.707Z,59.92
2019-03-05T22:05:32.648Z,59.41
2019-03-05T22:08:02.401Z,60.15
2019-03-05T22:10:31.904Z,63.06
2019-03-05T22:13:01.955Z,64.99
2019-03-05T22:15:31.425Z,65.33
2019-03-05T22:18:00.843Z,63.48
2019-03-05T22:20:30.248Z,61.45
2019-03-05T22:22:59.929Z,60.83
2019-03-05T22:25:29.449Z,61.29
2019-03-05T22:27:59.349Z,61.61
2019-03-05T22:30:29.178Z,61.63
2019-03-05T22:32:58.578Z,60.97
2019-03-05T22:35:28.522Z,60.47
2019-03-05T22:37:58.056Z,60.25
2019-03-05T22:40:27.438Z,60.16
2019-03-05T22:42:56.874Z,60.02
2019-03-05T22:45:26.226Z,60.00
2019-03-05T22:47:55.627Z,59.50
2019-03-05T22:50:25.012Z,59.21
2019-03-05T22:52:54.463Z,59.16
2019-03-05T22:55:23.807Z,59.66
2019-03-05T22:57:53.222Z,59.57
2019-03-05T23:01:03.538Z,59.18
2019-03-05T23:03:32.983Z,59.48
2019-03-05T23:06:02.953Z,59.98
2019-03-05T23:08:32.373Z,60.17
2019-03-05T23:11:01.725Z,60.21
2019-03-05T23:13:31.122Z,60.48
2019-03-05T23:16:00.770Z,60.51
2019-03-05T23:18:30.187Z,64.36
2019-03-05T23:20:59.522Z,65.34
2019-03-05T23:23:28.923Z,68.43
2019-03-05T23:25:58.391Z,68.51
2019-03-05T23:28:27.754Z,67.47
2019-03-05T23:30:57.103Z,65.27
2019-03-05T23:33:26.504Z,63.25
2019-03-05T23:35:55.846Z,62.16
2019-03-05T23:38:25.235Z,61.83
2019-03-05T23:40:54.584Z,61.68
2019-03-05T23:43:23.982Z,62.01
2019-03-05T23:45:53.368Z,61.58
2019-03-05T23:48:22.779Z,61.49
2019-03-05T23:50:52.127Z,62.26
2019-03-05T23:53:21.579Z,63.47
2019-03-05T23:55:50.977Z,65.33
2019-03-05T23:58:20.394Z,67.01
